PH-0003 weather

Azagra Airstrip
Sibuyan Island, Romblon Province, Philippines

Public forecast

Using degrees Celsius for public forecast. Weather courtesy of forecast.io.

METAR (pilot weather report)

Report is more than 6 hours old.

Closest report is Kalibo International Airport, 38.9 nm (72.0 km) SSW. Retrieved 2019/05/13 13:00 UTC (1 month ago):

RPVK 131300Z AUTO 21003KT 170V230 CAVOK 28/27 Q1010 RMK A2983

TAF (pilot weather forecast)

Forecast is more than 12 hours old.

Closest forecast is Kalibo International Airport, 38.9 nm (72.0 km) SSW. Retrieved 2019/06/16 12:10 UTC (2 days ago):

TAF RPVK 161100Z 1612/1712 07006KT 9999 FEW016 SCT240 TEMPO 1612/1618 20007KT -SHRA FEW015CB BKN070